Wetterdaten: Woche 07.03.16 - 13.03.16 (KW10)
Datum Zeit Auen-Temp. Temp gefhlt Luftfeuchte Luftdruck Regen Wind Richtung Sonnenschein Taupunkt Windben
07.03.2016 00:00 -4,5 C -5,1 C 82 % 1003,3 hPa 0,0 mm 0,7 km/h (0 Bft) S 0,00 h -7,2 C 1,9 km/h (1 Bft)
07.03.2016 01:00 -4,0 C -4,6 C 80 % 1003,3 hPa 0,0 mm 4,8 km/h (1 Bft) W-SW 0,00 h -7,0 C 8,6 km/h (2 Bft)
07.03.2016 02:00 -3,5 C -4,1 C 78 % 1003,2 hPa 0,0 mm 5,4 km/h (1 Bft) SW 0,00 h -6,8 C 7,9 km/h (2 Bft)
07.03.2016 03:00 -3,0 C -3,4 C 79 % 1003,0 hPa 0,0 mm 3,4 km/h (1 Bft) W 0,00 h -6,2 C 4,1 km/h (1 Bft)
07.03.2016 04:00 -3,3 C -3,7 C 79 % 1002,9 hPa 0,0 mm 0,3 km/h (0 Bft) N 0,00 h -6,4 C 0,3 km/h (0 Bft)
07.03.2016 05:00 -3,3 C -3,7 C 82 % 1002,9 hPa 0,0 mm 0,3 km/h (0 Bft) N 0,00 h -6,0 C 0,3 km/h (0 Bft)
07.03.2016 06:00 -3,7 C -4,0 C 82 % 1002,9 hPa 0,0 mm 0,0 km/h (0 Bft) N 0,00 h -6,4 C 0,0 km/h (0 Bft)
07.03.2016 07:00 -3,4 C -3,6 C 82 % 1003,2 hPa 0,0 mm 0,2 km/h (0 Bft) N 0,00 h -6,0 C 0,5 km/h (0 Bft)
07.03.2016 08:00 -1,9 C 0,3 C 79 % 1003,6 hPa 0,0 mm 0,8 km/h (0 Bft) SW 0,00 h -5,0 C 1,6 km/h (1 Bft)
07.03.2016 09:00 0,5 C 5,4 C 75 % 1004,0 hPa 0,0 mm 3,5 km/h (1 Bft) NW 0,58 h -3,4 C 4,8 km/h (1 Bft)
07.03.2016 10:00 0,7 C 3,1 C 70 % 1004,1 hPa 0,0 mm 7,5 km/h (2 Bft) NW 0,00 h -4,2 C 9,1 km/h (2 Bft)
07.03.2016 11:00 1,5 C 5,5 C 66 % 1004,0 hPa 0,0 mm 5,7 km/h (1 Bft) NW 0,00 h -4,1 C 5,9 km/h (2 Bft)
07.03.2016 12:00 2,0 C 7,6 C 61 % 1004,0 hPa 0,0 mm 3,0 km/h (1 Bft) W 0,00 h -4,7 C 3,6 km/h (1 Bft)
07.03.2016 13:00 2,8 C 8,5 C 58 % 1003,7 hPa 0,0 mm 4,1 km/h (1 Bft) N-NW 0,08 h -4,6 C 4,5 km/h (1 Bft)
07.03.2016 14:00 1,7 C 5,8 C 58 % 1003,7 hPa 0,0 mm 6,7 km/h (2 Bft) W 0,00 h -5,6 C 8,3 km/h (2 Bft)
07.03.2016 15:00 2,0 C 7,1 C 57 % 1003,4 hPa 0,0 mm 4,0 km/h (1 Bft) W-SW 0,33 h -5,6 C 4,6 km/h (1 Bft)
07.03.2016 16:00 0,8 C 4,6 C 57 % 1003,1 hPa 0,0 mm 2,0 km/h (1 Bft) SW 0,45 h -6,7 C 2,4 km/h (1 Bft)
07.03.2016 17:00 0,0 C 0,2 C 58 % 1003,2 hPa 0,0 mm 0,0 km/h (0 Bft) N 0,00 h -7,3 C 0,0 km/h (0 Bft)
07.03.2016 18:00 -1,7 C -2,3 C 65 % 1003,4 hPa 0,0 mm 0,0 km/h (0 Bft) N 0,00 h -7,4 C 0,0 km/h (0 Bft)
07.03.2016 19:00 -2,6 C -3,3 C 68 % 1003,6 hPa 0,0 mm 0,0 km/h (0 Bft) N 0,00 h -7,8 C 0,0 km/h (0 Bft)
07.03.2016 20:00 -3,2 C -3,7 C 70 % 1003,9 hPa 0,0 mm 0,0 km/h (0 Bft) N 0,00 h -7,9 C 0,0 km/h (0 Bft)
07.03.2016 21:00 -3,6 C -4,0 C 73 % 1004,1 hPa 0,0 mm 0,0 km/h (0 Bft) N 0,00 h -7,7 C 0,0 km/h (0 Bft)
07.03.2016 22:00 -4,1 C -4,5 C 75 % 1004,6 hPa 0,0 mm 0,0 km/h (0 Bft) N 0,00 h -7,8 C 0,0 km/h (0 Bft)
07.03.2016 23:00 -4,2 C -4,7 C 77 % 1004,8 hPa 0,0 mm 0,0 km/h (0 Bft) N 0,00 h -7,7 C 0,0 km/h (0 Bft)
08.03.2016 00:00 -4,6 C -5,1 C 78 % 1004,9 hPa 0,0 mm 0,0 km/h (0 Bft) N 0,00 h -7,8 C 0,0 km/h (0 Bft)
08.03.2016 01:00 -4,9 C -5,4 C 79 % 1005,3 hPa 0,0 mm 0,0 km/h (0 Bft) N 0,00 h -8,0 C 0,0 km/h (0 Bft)
08.03.2016 02:00 -4,8 C -5,2 C 80 % 1005,6 hPa 0,0 mm 0,0 km/h (0 Bft) N 0,00 h -7,7 C 0,0 km/h (0 Bft)
08.03.2016 03:00 -5,1 C -5,5 C 81 % 1005,8 hPa 0,0 mm 0,1 km/h (0 Bft) N 0,00 h -7,9 C 0,0 km/h (0 Bft)
08.03.2016 04:00 -5,3 C -5,8 C 81 % 1006,3 hPa 0,0 mm 0,4 km/h (0 Bft) SW 0,00 h -8,0 C 1,3 km/h (1 Bft)
08.03.2016 05:00 -4,0 C -4,7 C 81 % 1006,8 hPa 0,0 mm 5,8 km/h (2 Bft) SW 0,00 h -6,8 C 8,8 km/h (2 Bft)
08.03.2016 06:00 -3,4 C -4,1 C 78 % 1007,7 hPa 0,0 mm 6,1 km/h (2 Bft) SW 0,00 h -6,7 C 7,3 km/h (2 Bft)
08.03.2016 07:00 -2,5 C -2,9 C 75 % 1008,6 hPa 0,0 mm 4,3 km/h (1 Bft) W-SW 0,00 h -6,3 C 5,8 km/h (2 Bft)
08.03.2016 08:00 -1,0 C -1,1 C 72 % 1009,5 hPa 0,0 mm 3,0 km/h (1 Bft) W 0,00 h -5,3 C 4,1 km/h (1 Bft)
08.03.2016 09:00 -0,1 C 0,6 C 67 % 1010,5 hPa 0,0 mm 7,2 km/h (2 Bft) W 0,00 h -5,6 C 11,3 km/h (2 Bft)
08.03.2016 10:00 0,2 C 1,9 C 69 % 1011,3 hPa 0,0 mm 9,9 km/h (2 Bft) W 0,00 h -4,8 C 13,2 km/h (3 Bft)
08.03.2016 11:00 0,3 C 1,9 C 69 % 1011,9 hPa 0,0 mm 7,0 km/h (2 Bft) W-NW 0,00 h -4,8 C 8,3 km/h (2 Bft)
08.03.2016 12:00 1,3 C 5,3 C 68 % 1012,2 hPa 0,0 mm 4,6 km/h (1 Bft) NW 0,00 h -3,9 C 6,0 km/h (2 Bft)
08.03.2016 13:00 0,2 C 2,2 C 72 % 1012,6 hPa 0,0 mm 6,8 km/h (2 Bft) O-NO 0,00 h -4,3 C 9,6 km/h (2 Bft)
08.03.2016 14:00 0,9 C 4,7 C 71 % 1012,8 hPa 0,7 mm 4,1 km/h (1 Bft) NW 0,17 h -3,8 C 5,5 km/h (1 Bft)
08.03.2016 15:00 1,0 C 4,4 C 69 % 1013,1 hPa 0,0 mm 4,7 km/h (1 Bft) W 0,17 h -3,9 C 6,2 km/h (2 Bft)
08.03.2016 16:00 -0,0 C 1,8 C 71 % 1013,2 hPa 0,0 mm 6,6 km/h (2 Bft) SW 0,00 h -4,6 C 8,6 km/h (2 Bft)
08.03.2016 17:00 -0,5 C -0,4 C 68 % 1013,4 hPa 0,0 mm 2,3 km/h (1 Bft) SW 0,00 h -5,7 C 2,3 km/h (1 Bft)
08.03.2016 18:00 -2,2 C -2,6 C 70 % 1013,8 hPa 0,0 mm 0,0 km/h (0 Bft) N 0,00 h -6,8 C 0,0 km/h (0 Bft)
08.03.2016 19:00 -2,3 C -2,6 C 74 % 1014,3 hPa 0,0 mm 0,9 km/h (0 Bft) S-SO 0,00 h -6,2 C 1,0 km/h (0 Bft)
08.03.2016 20:00 -1,8 C -1,9 C 75 % 1014,8 hPa 0,0 mm 2,2 km/h (1 Bft) SO 0,00 h -5,6 C 3,2 km/h (1 Bft)
08.03.2016 21:00 -1,9 C -2,1 C 76 % 1015,2 hPa 0,0 mm 0,0 km/h (0 Bft) N 0,00 h -5,5 C 0,0 km/h (0 Bft)
08.03.2016 22:00 -1,9 C -2,1 C 77 % 1015,2 hPa 0,0 mm 0,9 km/h (0 Bft) O-SO 0,00 h -5,3 C 1,3 km/h (1 Bft)
08.03.2016 23:00 -1,8 C -2,0 C 78 % 1015,1 hPa 0,0 mm 0,3 km/h (0 Bft) N 0,00 h -5,1 C 0,6 km/h (0 Bft)
09.03.2016 00:00 -2,0 C -2,2 C 78 % 1014,7 hPa 0,0 mm 0,1 km/h (0 Bft) N 0,00 h -5,2 C 0,0 km/h (0 Bft)
09.03.2016 01:00 -3,0 C -3,4 C 82 % 1014,0 hPa 0,0 mm 0,0 km/h (0 Bft) N 0,00 h -5,6 C 0,0 km/h (0 Bft)
09.03.2016 02:00 -3,9 C -4,2 C 86 % 1013,2 hPa 0,0 mm 0,0 km/h (0 Bft) N 0,00 h -5,9 C 0,0 km/h (0 Bft)
09.03.2016 03:00 -4,5 C -4,8 C 86 % 1012,4 hPa 0,0 mm 0,0 km/h (0 Bft) N 0,00 h -6,4 C 0,0 km/h (0 Bft)
09.03.2016 04:00 -4,6 C -5,0 C 88 % 1011,7 hPa 0,0 mm 0,0 km/h (0 Bft) N 0,00 h -6,4 C 0,0 km/h (0 Bft)
09.03.2016 05:00 -4,0 C -4,1 C 86 % 1011,0 hPa 0,0 mm 0,2 km/h (0 Bft) N 0,00 h -6,0 C 0,0 km/h (0 Bft)
09.03.2016 06:00 -2,9 C -3,1 C 87 % 1010,2 hPa 0,0 mm 0,3 km/h (0 Bft) N 0,00 h -4,8 C 0,0 km/h (0 Bft)
09.03.2016 07:00 -3,6 C -3,8 C 86 % 1009,6 hPa 0,0 mm 0,1 km/h (0 Bft) N 0,00 h -5,6 C 0,0 km/h (0 Bft)
09.03.2016 08:00 -3,2 C -2,4 C 83 % 1009,0 hPa 0,0 mm 3,9 km/h (1 Bft) NO 0,00 h -5,7 C 6,8 km/h (2 Bft)
09.03.2016 09:00 -1,9 C 0,3 C 83 % 1008,9 hPa 0,0 mm 6,6 km/h (2 Bft) O-NO 0,00 h -4,5 C 9,2 km/h (2 Bft)
09.03.2016 10:00 -0,8 C 3,6 C 80 % 1008,3 hPa 0,0 mm 4,8 km/h (1 Bft) O-NO 0,17 h -3,8 C 5,5 km/h (1 Bft)
09.03.2016 11:00 1,5 C 8,3 C 75 % 1009,0 hPa 0,0 mm 5,2 km/h (1 Bft) O-NO 0,88 h -2,5 C 8,2 km/h (2 Bft)
09.03.2016 12:00 3,1 C 6,8 C 66 % 1009,3 hPa 0,0 mm 10,3 km/h (2 Bft) O-NO 0,00 h -2,5 C 14,2 km/h (3 Bft)
09.03.2016 13:00 4,1 C 8,4 C 64 % 1008,5 hPa 0,0 mm 11,6 km/h (2 Bft) O-NO 0,00 h -2,1 C 15,8 km/h (3 Bft)
09.03.2016 14:00 5,1 C 9,2 C 63 % 1007,1 hPa 0,0 mm 11,0 km/h (2 Bft) O-NO 0,00 h -1,4 C 14,4 km/h (3 Bft)
09.03.2016 15:00 4,9 C 8,1 C 63 % 1005,7 hPa 0,0 mm 11,7 km/h (2 Bft) NO 0,25 h -1,5 C 12,6 km/h (3 Bft)
09.03.2016 16:00 4,1 C 7,0 C 64 % 1004,8 hPa 0,0 mm 7,1 km/h (2 Bft) O-NO 0,50 h -2,1 C 8,8 km/h (2 Bft)
09.03.2016 17:00 2,6 C 2,8 C 67 % 1004,6 hPa 0,0 mm 3,9 km/h (1 Bft) O-NO 0,00 h -2,8 C 4,4 km/h (1 Bft)
09.03.2016 18:00 0,6 C 0,0 C 74 % 1004,8 hPa 0,0 mm 0,9 km/h (0 Bft) S-SO 0,00 h -3,5 C 1,3 km/h (1 Bft)
09.03.2016 19:00 -1,2 C -1,8 C 81 % 1005,2 hPa 0,0 mm 0,6 km/h (0 Bft) SO 0,00 h -4,1 C 1,2 km/h (1 Bft)
09.03.2016 20:00 -2,1 C -2,6 C 85 % 1005,5 hPa 0,0 mm 1,3 km/h (1 Bft) S-SO 0,00 h -4,3 C 1,7 km/h (1 Bft)
09.03.2016 21:00 -3,7 C -4,2 C 83 % 1005,6 hPa 0,0 mm 0,1 km/h (0 Bft) N 0,00 h -6,1 C 0,0 km/h (0 Bft)
09.03.2016 22:00 -4,5 C -5,0 C 84 % 1005,8 hPa 0,0 mm 0,0 km/h (0 Bft) N 0,00 h -6,8 C 0,0 km/h (0 Bft)
09.03.2016 23:00 -4,3 C -4,6 C 82 % 1006,0 hPa 0,0 mm 0,2 km/h (0 Bft) N 0,00 h -6,8 C 0,3 km/h (0 Bft)
10.03.2016 00:00 -4,3 C -4,9 C 86 % 1006,5 hPa 0,0 mm 0,0 km/h (0 Bft) N 0,00 h -6,3 C 0,0 km/h (0 Bft)
10.03.2016 01:00 -4,9 C -5,4 C 88 % 1007,0 hPa 0,0 mm 0,0 km/h (0 Bft) N 0,00 h -6,6 C 0,0 km/h (0 Bft)
10.03.2016 02:00 -5,4 C -5,9 C 88 % 1007,4 hPa 0,0 mm 0,0 km/h (0 Bft) N 0,00 h -7,1 C 0,0 km/h (0 Bft)
10.03.2016 03:00 -5,5 C -6,0 C 88 % 1007,9 hPa 0,0 mm 0,3 km/h (0 Bft) S-SO 0,00 h -7,2 C 0,7 km/h (0 Bft)
10.03.2016 04:00 -5,8 C -6,3 C 88 % 1008,6 hPa 0,0 mm 0,0 km/h (0 Bft) N 0,00 h -7,5 C 0,0 km/h (0 Bft)
10.03.2016 05:00 -6,4 C -6,9 C 87 % 1009,3 hPa 0,0 mm 0,1 km/h (0 Bft) N 0,00 h -8,2 C 0,0 km/h (0 Bft)
10.03.2016 06:00 -6,0 C -6,4 C 88 % 1010,2 hPa 0,0 mm 0,6 km/h (0 Bft) S-SO 0,00 h -7,6 C 1,2 km/h (1 Bft)
10.03.2016 07:00 -6,3 C -6,6 C 88 % 1011,0 hPa 0,0 mm 0,3 km/h (0 Bft) SW 0,00 h -8,0 C 0,6 km/h (0 Bft)
10.03.2016 08:00 -4,0 C -2,4 C 88 % 1011,9 hPa 0,0 mm 0,1 km/h (0 Bft) N 0,25 h -5,6 C 0,0 km/h (0 Bft)
10.03.2016 09:00 -0,9 C 5,9 C 86 % 1013,1 hPa 0,0 mm 0,2 km/h (0 Bft) N 0,83 h -2,9 C 0,3 km/h (0 Bft)
10.03.2016 10:00 2,5 C 12,6 C 80 % 1014,9 hPa 0,0 mm 0,0 km/h (0 Bft) N 1,00 h -0,6 C 0,5 km/h (0 Bft)
10.03.2016 11:00 5,8 C 13,8 C 68 % 1015,8 hPa 0,0 mm 3,5 km/h (1 Bft) NW 0,58 h 0,3 C 5,6 km/h (1 Bft)
10.03.2016 12:00 7,0 C 12,5 C 61 % 1016,2 hPa 0,0 mm 5,9 km/h (2 Bft) W 0,17 h 0,0 C 9,0 km/h (2 Bft)
10.03.2016 13:00 7,6 C 13,0 C 59 % 1016,1 hPa 0,0 mm 8,5 km/h (2 Bft) N-NO 0,18 h 0,1 C 11,0 km/h (2 Bft)
10.03.2016 14:00 7,9 C 13,2 C 58 % 1015,8 hPa 0,0 mm 8,3 km/h (2 Bft) NO 0,75 h 0,2 C 9,6 km/h (2 Bft)
10.03.2016 15:00 7,2 C 11,6 C 59 % 1015,2 hPa 0,0 mm 8,8 km/h (2 Bft) N-NO 0,42 h -0,2 C 10,9 km/h (2 Bft)
10.03.2016 16:00 6,1 C 7,9 C 62 % 1014,9 hPa 0,0 mm 8,0 km/h (2 Bft) N-NO 0,08 h -0,7 C 9,6 km/h (2 Bft)
10.03.2016 17:00 4,8 C 5,2 C 64 % 1014,9 hPa 0,0 mm 2,5 km/h (1 Bft) O-SO 0,00 h -1,4 C 2,8 km/h (1 Bft)
10.03.2016 18:00 3,2 C 2,8 C 70 % 1015,4 hPa 0,0 mm 0,0 km/h (0 Bft) N 0,00 h -1,8 C 0,0 km/h (0 Bft)
10.03.2016 19:00 0,7 C 1,1 C 76 % 1016,2 hPa 0,0 mm 0,5 km/h (0 Bft) S 0,00 h -3,0 C 1,7 km/h (1 Bft)
10.03.2016 20:00 -0,3 C -0,7 C 79 % 1016,6 hPa 0,0 mm 0,0 km/h (0 Bft) N 0,00 h -3,4 C 0,0 km/h (0 Bft)
10.03.2016 21:00 -1,1 C -1,6 C 80 % 1016,9 hPa 0,0 mm 0,0 km/h (0 Bft) N 0,00 h -4,1 C 0,0 km/h (0 Bft)
10.03.2016 22:00 -0,9 C -1,3 C 82 % 1017,0 hPa 0,0 mm 0,0 km/h (0 Bft) N 0,00 h -3,5 C 0,0 km/h (0 Bft)
10.03.2016 23:00 -0,6 C -0,9 C 84 % 1017,1 hPa 0,0 mm 0,1 km/h (0 Bft) N 0,00 h -3,1 C 0,3 km/h (0 Bft)
11.03.2016 00:00 -0,6 C -0,9 C 84 % 1017,2 hPa 0,0 mm 0,0 km/h (0 Bft) N 0,00 h -3,0 C 0,0 km/h (0 Bft)
11.03.2016 01:00 -0,6 C -0,9 C 85 % 1017,5 hPa 0,0 mm 0,5 km/h (0 Bft) O-NO 0,00 h -2,9 C 0,9 km/h (0 Bft)
11.03.2016 02:00 -0,4 C -0,6 C 86 % 1017,7 hPa 0,0 mm 0,4 km/h (0 Bft) N 0,00 h -2,4 C 0,6 km/h (0 Bft)
11.03.2016 03:00 -0,6 C -0,9 C 86 % 1017,7 hPa 0,0 mm 0,0 km/h (0 Bft) N 0,00 h -2,6 C 0,0 km/h (0 Bft)
11.03.2016 04:00 -1,4 C -1,8 C 87 % 1017,8 hPa 0,0 mm 0,0 km/h (0 Bft) N 0,00 h -3,2 C 0,6 km/h (0 Bft)
11.03.2016 05:00 -1,8 C -2,2 C 90 % 1017,8 hPa 0,0 mm 0,6 km/h (0 Bft) S 0,00 h -3,3 C 1,1 km/h (0 Bft)
11.03.2016 06:00 -2,8 C -3,2 C 89 % 1017,8 hPa 0,0 mm 0,0 km/h (0 Bft) N 0,00 h -4,3 C 0,3 km/h (0 Bft)
11.03.2016 07:00 -2,4 C -2,6 C 90 % 1018,1 hPa 0,0 mm 1,9 km/h (1 Bft) O-NO 0,00 h -3,8 C 5,2 km/h (1 Bft)
11.03.2016 08:00 -0,6 C -0,7 C 92 % 1018,7 hPa 0,0 mm 4,8 km/h (1 Bft) NO 0,00 h -1,8 C 6,9 km/h (2 Bft)
11.03.2016 09:00 0,0 C 3,9 C 88 % 1019,1 hPa 0,0 mm 3,0 km/h (1 Bft) O-NO 0,17 h -1,8 C 2,6 km/h (1 Bft)
11.03.2016 10:00 0,0 C 4,7 C 77 % 1019,7 hPa 0,0 mm 6,8 km/h (2 Bft) NO 0,33 h -3,6 C 10,5 km/h (2 Bft)
11.03.2016 11:00 0,0 C 5,2 C 68 % 1020,2 hPa 0,0 mm 9,6 km/h (2 Bft) O-NO 0,00 h -5,2 C 14,3 km/h (3 Bft)
11.03.2016 12:00 0,0 C 7,8 C 60 % 1020,8 hPa 0,0 mm 10,1 km/h (2 Bft) O-NO 0,08 h -6,7 C 13,9 km/h (3 Bft)
11.03.2016 13:00 0,0 C 10,0 C 53 % 1020,9 hPa 0,0 mm 12,4 km/h (3 Bft) O-NO 0,25 h -8,4 C 17,7 km/h (3 Bft)
11.03.2016 14:00 0,0 C 6,1 C 56 % 1020,2 hPa 0,0 mm 11,2 km/h (2 Bft) O-NO 0,00 h -7,7 C 15,2 km/h (3 Bft)
11.03.2016 15:00 0,3 C 4,7 C 60 % 1019,7 hPa 0,0 mm 11,7 km/h (2 Bft) O-NO 0,00 h -6,5 C 18,5 km/h (3 Bft)
11.03.2016 16:00 4,0 C 4,0 C 66 % 1019,5 hPa 0,0 mm 6,7 km/h (2 Bft) O-NO 0,00 h -1,7 C 9,1 km/h (2 Bft)
11.03.2016 17:00 3,5 C 3,2 C 68 % 1019,6 hPa 0,0 mm 8,1 km/h (2 Bft) NO 0,00 h -1,8 C 10,7 km/h (2 Bft)
11.03.2016 18:00 2,7 C 2,6 C 71 % 1019,9 hPa 0,0 mm 3,0 km/h (1 Bft) O-NO 0,00 h -2,0 C 3,9 km/h (1 Bft)
11.03.2016 19:00 1,1 C 2,3 C 74 % 1020,4 hPa 0,0 mm 2,8 km/h (1 Bft) N-NO 0,00 h -3,0 C 4,3 km/h (1 Bft)
11.03.2016 20:00 0,0 C 1,9 C 75 % 1020,7 hPa 0,0 mm 0,3 km/h (0 Bft) N 0,00 h -3,8 C 0,0 km/h (0 Bft)
11.03.2016 21:00 0,0 C 1,6 C 76 % 1020,8 hPa 0,0 mm 0,1 km/h (0 Bft) N 0,00 h -3,7 C 0,6 km/h (0 Bft)
11.03.2016 22:00 0,0 C 1,5 C 77 % 1020,8 hPa 0,0 mm 0,1 km/h (0 Bft) O-NO 0,00 h -3,5 C 0,4 km/h (0 Bft)
11.03.2016 23:00 0,0 C 1,3 C 79 % 1020,7 hPa 0,0 mm 1,1 km/h (1 Bft) NO 0,00 h -3,2 C 1,6 km/h (1 Bft)
12.03.2016 00:00 0,6 C 1,2 C 79 % 1020,8 hPa 0,0 mm 0,1 km/h (0 Bft) N 0,00 h -2,6 C 0,3 km/h (0 Bft)
12.03.2016 01:00 1,3 C 1,1 C 79 % 1021,0 hPa 0,0 mm 0,0 km/h (0 Bft) N 0,00 h -1,9 C 0,0 km/h (0 Bft)
12.03.2016 02:00 1,1 C 0,9 C 80 % 1020,9 hPa 0,0 mm 0,1 km/h (0 Bft) N 0,00 h -1,9 C 0,3 km/h (0 Bft)
12.03.2016 03:00 1,0 C 0,8 C 82 % 1020,6 hPa 0,0 mm 0,1 km/h (0 Bft) N 0,00 h -1,7 C 0,9 km/h (0 Bft)
12.03.2016 04:00 1,0 C 0,9 C 83 % 1020,5 hPa 0,0 mm 1,5 km/h (1 Bft) O-NO 0,00 h -1,5 C 2,6 km/h (1 Bft)
12.03.2016 05:00 1,0 C 0,9 C 85 % 1020,4 hPa 0,0 mm 1,3 km/h (1 Bft) NO 0,00 h -1,2 C 2,5 km/h (1 Bft)
12.03.2016 06:00 1,0 C 0,9 C 84 % 1020,6 hPa 0,0 mm 1,1 km/h (1 Bft) SO 0,00 h -1,4 C 0,5 km/h (0 Bft)
12.03.2016 07:00 1,1 C 1,1 C 84 % 1021,0 hPa 0,0 mm 1,9 km/h (1 Bft) O-NO 0,00 h -1,3 C 2,1 km/h (1 Bft)
12.03.2016 08:00 1,3 C 1,4 C 84 % 1021,3 hPa 0,0 mm 3,8 km/h (1 Bft) NO 0,00 h -1,0 C 6,9 km/h (2 Bft)
12.03.2016 09:00 1,5 C 1,4 C 84 % 1021,7 hPa 0,0 mm 8,2 km/h (2 Bft) O-NO 0,00 h -0,9 C 14,1 km/h (3 Bft)
12.03.2016 10:00 1,6 C 1,6 C 84 % 1022,0 hPa 0,0 mm 10,6 km/h (2 Bft) NO 0,00 h -0,8 C 13,8 km/h (3 Bft)
12.03.2016 11:00 1,7 C 1,8 C 84 % 1022,2 hPa 0,0 mm 9,3 km/h (2 Bft) NO 0,00 h -0,7 C 10,0 km/h (2 Bft)
12.03.2016 12:00 1,8 C 2,1 C 84 % 1022,0 hPa 0,0 mm 8,1 km/h (2 Bft) O-NO 0,00 h -0,6 C 11,0 km/h (2 Bft)
12.03.2016 13:00 2,1 C 2,1 C 83 % 1021,9 hPa 0,0 mm 9,6 km/h (2 Bft) O-NO 0,00 h -0,4 C 10,4 km/h (2 Bft)
12.03.2016 14:00 2,2 C 2,4 C 83 % 1021,6 hPa 0,0 mm 6,9 km/h (2 Bft) O-NO 0,00 h -0,4 C 8,1 km/h (2 Bft)
12.03.2016 15:00 2,1 C 2,3 C 82 % 1021,7 hPa 0,0 mm 4,5 km/h (1 Bft) O-NO 0,00 h -0,6 C 6,8 km/h (2 Bft)
12.03.2016 16:00 1,9 C 1,9 C 83 % 1021,9 hPa 0,0 mm 3,9 km/h (1 Bft) O-NO 0,00 h -0,7 C 5,0 km/h (1 Bft)
12.03.2016 17:00 1,6 C 1,5 C 85 % 1022,0 hPa 0,0 mm 2,7 km/h (1 Bft) O-NO 0,00 h -0,6 C 2,5 km/h (1 Bft)
12.03.2016 18:00 1,4 C 1,2 C 86 % 1022,3 hPa 0,0 mm 0,8 km/h (0 Bft) N-NO 0,00 h -0,7 C 2,0 km/h (1 Bft)
12.03.2016 19:00 1,3 C 1,1 C 87 % 1022,6 hPa 0,0 mm 1,2 km/h (1 Bft) O-SO 0,00 h -0,6 C 2,2 km/h (1 Bft)
12.03.2016 20:00 1,3 C 1,1 C 88 % 1023,0 hPa 0,0 mm 1,9 km/h (1 Bft) O-NO 0,00 h -0,4 C 3,1 km/h (1 Bft)
12.03.2016 21:00 1,3 C 1,1 C 89 % 1023,0 hPa 0,0 mm 4,2 km/h (1 Bft) O-NO 0,00 h -0,3 C 4,6 km/h (1 Bft)
12.03.2016 22:00 1,1 C 0,9 C 89 % 1022,8 hPa 0,0 mm 3,3 km/h (1 Bft) NO 0,00 h -0,5 C 2,9 km/h (1 Bft)
12.03.2016 23:00 0,9 C 0,5 C 91 % 1022,6 hPa 0,0 mm 5,9 km/h (2 Bft) NO 0,00 h -0,5 C 9,2 km/h (2 Bft)
13.03.2016 00:00 0,8 C 0,1 C 92 % 1022,4 hPa 0,0 mm 9,2 km/h (2 Bft) NO 0,00 h -0,3 C 14,0 km/h (3 Bft)
13.03.2016 01:00 0,7 C 0,1 C 93 % 1022,3 hPa 0,0 mm 8,3 km/h (2 Bft) O-NO 0,00 h -0,3 C 11,6 km/h (2 Bft)
13.03.2016 02:00 0,6 C -0,2 C 93 % 1022,1 hPa 0,0 mm 10,8 km/h (2 Bft) NO 0,00 h -0,4 C 16,8 km/h (3 Bft)
13.03.2016 03:00 0,6 C -0,1 C 93 % 1021,9 hPa 0,0 mm 9,1 km/h (2 Bft) O-NO 0,00 h -0,4 C 9,0 km/h (2 Bft)
13.03.2016 04:00 0,6 C -0,1 C 93 % 1021,9 hPa 0,0 mm 9,0 km/h (2 Bft) O-NO 0,00 h -0,4 C 12,0 km/h (2 Bft)
13.03.2016 05:00 0,6 C -0,3 C 94 % 1021,9 hPa 0,0 mm 11,6 km/h (2 Bft) O-NO 0,00 h -0,4 C 19,4 km/h (3 Bft)
13.03.2016 06:00 0,5 C -0,2 C 94 % 1022,0 hPa 0,0 mm 9,6 km/h (2 Bft) O-NO 0,00 h -0,4 C 11,0 km/h (2 Bft)
13.03.2016 07:00 0,5 C -0,2 C 91 % 1022,4 hPa 0,0 mm 10,8 km/h (2 Bft) O-NO 0,00 h -0,8 C 13,1 km/h (3 Bft)
13.03.2016 08:00 0,6 C 0,0 C 89 % 1022,7 hPa 0,0 mm 9,6 km/h (2 Bft) O-NO 0,00 h -1,0 C 11,4 km/h (2 Bft)
13.03.2016 09:00 0,8 C 0,5 C 89 % 1023,1 hPa 0,0 mm 11,9 km/h (2 Bft) NO 0,00 h -0,8 C 15,4 km/h (3 Bft)
13.03.2016 10:00 1,3 C 1,3 C 88 % 1023,2 hPa 0,0 mm 15,5 km/h (3 Bft) O-NO 0,00 h -0,6 C 24,0 km/h (4 Bft)
13.03.2016 11:00 1,9 C 2,2 C 84 % 1023,4 hPa 0,0 mm 16,4 km/h (3 Bft) NO 0,00 h -0,4 C 18,7 km/h (3 Bft)
13.03.2016 12:00 1,9 C 1,7 C 81 % 1023,5 hPa 0,0 mm 18,4 km/h (3 Bft) O-NO 0,00 h -1,0 C 25,4 km/h (4 Bft)
13.03.2016 13:00 2,2 C 2,1 C 78 % 1023,2 hPa 0,0 mm 18,8 km/h (3 Bft) O-NO 0,00 h -1,3 C 25,8 km/h (4 Bft)
13.03.2016 14:00 2,5 C 2,6 C 76 % 1023,1 hPa 0,0 mm 18,1 km/h (3 Bft) NO 0,00 h -1,2 C 23,0 km/h (4 Bft)
13.03.2016 15:00 2,8 C 2,9 C 76 % 1023,0 hPa 0,0 mm 16,9 km/h (3 Bft) O-NO 0,00 h -1,1 C 21,1 km/h (4 Bft)
13.03.2016 16:00 2,8 C 2,5 C 75 % 1022,9 hPa 0,0 mm 11,5 km/h (2 Bft) O-NO 0,00 h -1,2 C 13,6 km/h (3 Bft)
13.03.2016 17:00 2,6 C 2,2 C 75 % 1023,0 hPa 0,0 mm 9,3 km/h (2 Bft) NO 0,00 h -1,3 C 13,4 km/h (3 Bft)
13.03.2016 18:00 2,2 C 1,8 C 76 % 1023,3 hPa 0,0 mm 7,6 km/h (2 Bft) O-NO 0,00 h -1,6 C 9,8 km/h (2 Bft)
13.03.2016 19:00 1,9 C 1,2 C 77 % 1023,7 hPa 0,0 mm 10,2 km/h (2 Bft) O-NO 0,00 h -1,6 C 12,9 km/h (3 Bft)
13.03.2016 20:00 1,6 C 0,7 C 79 % 1023,9 hPa 0,0 mm 12,3 km/h (3 Bft) NO 0,00 h -1,6 C 14,9 km/h (3 Bft)
13.03.2016 21:00 1,4 C 0,7 C 81 % 1024,0 hPa 0,0 mm 10,1 km/h (2 Bft) O-NO 0,00 h -1,5 C 12,9 km/h (3 Bft)
13.03.2016 22:00 1,4 C 0,7 C 82 % 1024,1 hPa 0,0 mm 9,9 km/h (2 Bft) O-NO 0,00 h -1,3 C 13,0 km/h (3 Bft)
13.03.2016 23:00 1,3 C 0,5 C 85 % 1024,0 hPa 0,0 mm 11,5 km/h (2 Bft) NO 0,00 h -1,0 C 14,0 km/h (3 Bft)
Min-Datum _ 10.03.16 10.03.16 11.03.16 07.03.16 - 12.03.16 - - 11.03.16 13.03.16
_ Min-Zeit 07:00 07:00 13:35 06:10 - 20:05 - - 13:35 03:05
Minimum _ -7,2 C -7,6 C 49 % 1002,8 hPa - 0,0 km/h (0 Bft) - - -9,4 C 0,0 km/h (0 Bft)
Max-Datum _ 10.03.16 10.03.16 13.03.16 13.03.16 08.03.16 13.03.16 - 11.03.16 10.03.16 13.03.16
_ Max-Zeit 14:15 11:00 07:00 22:00 14:05 12:55 - 13:20 10:55 13:00
Maximum _ 8,2 C 15,5 C 94 % 1024,2 hPa 0,7 mm 24,7 km/h
O-NO (4 Bft)
- 0,08 h 1,3 C 56,9 km/h
O-NO (7 Bft)
Durchschnitt _ -0,2 C 0,7 C 78 % 1014,3 hPa #0,7 mm 4,3 km/h (1 Bft) O-NO #8:41 h -3,7 C 5,8 km/h (2 Bft)